South Woodstock, Connecticut
Current Conditions -  °F | °C
As of 8:52 AM on Saturday 20 Dec 2014 (Local Time) from KIJD Reporting Station
Overcast Overcast  
Wind Chill: 24°   Ceiling: 2900
Heat Index: 29°   Visibility: 10mi
Dew Point: 21°   Wind: 5mph
Humidity: 72%   Direction: 360°N
Pressure: 30.27"   Gusts: NA
Location:  41.93°N, 71.96°W
Report Text: KIJD 201352Z AUTO 36004KT 10SM OVC029 M02/M06 A3027 RMK AO2 SLP252 T10171061
Loading
Personal Weather Stations






























Interactive Weather Map New forecast layout! Learn more

10-Day Weather Forecast

Advertisements
Track Severe Weather on mobile